Time,TemperatureF,DewpointF,PressureIn,WindDirection,WindDirectionDegrees,WindSpeedMPH,WindSpeedGustMPH,Humidity,HourlyPrecipIn,Conditions,Clouds,dailyrainin,SoftwareType,DateUTC
2013-07-31 00:12:00,65.0,44.0,30.13,North,5,2.0,6.0,46,0.00,,,0.00,,2013-07-31 07:12:00,
2013-07-31 00:22:00,64.0,44.0,30.13,North,5,1.0,3.0,48,0.00,,,0.00,,2013-07-31 07:22:00,
2013-07-31 00:32:00,63.0,44.0,30.13,North,5,1.0,3.0,50,0.00,,,0.00,,2013-07-31 07:32:00,
2013-07-31 00:43:00,63.0,44.0,30.13,North,5,1.0,3.0,50,0.00,,,0.00,,2013-07-31 07:43:00,
2013-07-31 00:52:00,63.0,44.0,30.12,NW,323,4.0,6.0,50,0.00,,,0.00,,2013-07-31 07:52:00,
2013-07-31 01:02:00,64.0,42.0,30.11,NW,317,4.0,7.0,44,0.00,,,0.00,,2013-07-31 08:02:00,
2013-07-31 01:11:00,64.0,42.0,30.11,NW,317,4.0,7.0,44,0.00,,,0.00,,2013-07-31 08:11:00,
2013-07-31 01:32:00,64.0,44.0,30.11,WNW,284,5.0,8.0,49,0.00,,,0.00,,2013-07-31 08:32:00,
2013-07-31 01:42:00,64.0,44.0,30.11,WNW,284,5.0,8.0,49,0.00,,,0.00,,2013-07-31 08:42:00,
2013-07-31 01:53:00,64.0,44.0,30.11,West,271,6.0,9.0,48,0.00,,,0.00,,2013-07-31 08:53:00,
2013-07-31 02:02:00,65.0,44.0,30.11,West,268,4.0,7.0,47,0.00,,,0.00,,2013-07-31 09:02:00,
2013-07-31 02:43:00,63.0,44.0,30.10,West,261,7.0,9.0,50,0.00,,,0.00,,2013-07-31 09:43:00,
2013-07-31 02:52:00,64.0,44.0,30.10,WSW,242,5.0,8.0,49,0.00,,,0.00,,2013-07-31 09:52:00,
2013-07-31 03:01:00,64.0,44.0,30.10,West,264,5.0,9.0,48,0.00,,,0.00,,2013-07-31 10:01:00,
2013-07-31 03:12:00,64.0,44.0,30.10,West,264,5.0,9.0,48,0.00,,,0.00,,2013-07-31 10:12:00,
2013-07-31 03:22:00,64.0,44.0,30.09,WNW,290,2.0,6.0,48,0.00,,,0.00,,2013-07-31 10:22:00,
2013-07-31 03:44:00,63.0,44.0,30.09,West,281,4.0,6.0,50,0.00,,,0.00,,2013-07-31 10:44:00,
2013-07-31 03:52:00,64.0,44.0,30.10,West,259,4.0,7.0,48,0.00,,,0.00,,2013-07-31 10:52:00,
2013-07-31 04:02:00,64.0,44.0,30.10,West,259,4.0,7.0,48,0.00,,,0.00,,2013-07-31 11:02:00,
2013-07-31 04:11:00,64.0,44.0,30.09,WNW,286,4.0,6.0,48,0.00,,,0.00,,2013-07-31 11:11:00,
2013-07-31 04:43:00,63.0,45.0,30.09,WSW,257,5.0,6.0,51,0.00,,,0.00,,2013-07-31 11:43:00,
2013-07-31 04:52:00,62.0,45.0,30.09,West,265,3.0,6.0,54,0.00,,,0.00,,2013-07-31 11:52:00,
2013-07-31 05:02:00,62.0,44.0,30.07,SW,235,5.0,9.0,51,0.00,,,0.00,,2013-07-31 12:02:00,
2013-07-31 05:12:00,62.0,44.0,30.07,SW,235,5.0,9.0,51,0.00,,,0.00,,2013-07-31 12:12:00,
2013-07-31 05:22:00,63.0,44.0,30.09,WSW,244,4.0,8.0,49,0.00,,,0.00,,2013-07-31 12:22:00,
2013-07-31 05:32:00,63.0,44.0,30.09,WSW,244,4.0,8.0,49,0.00,,,0.00,,2013-07-31 12:32:00,
2013-07-31 05:43:00,64.0,43.0,30.09,WSW,247,5.0,7.0,47,0.00,,,0.00,,2013-07-31 12:43:00,
2013-07-31 05:52:00,64.0,44.0,30.07,WSW,248,6.0,8.0,48,0.00,,,0.00,,2013-07-31 12:52:00,
2013-07-31 06:11:00,64.0,44.0,30.08,SW,228,6.0,7.0,48,0.00,,,0.00,,2013-07-31 13:11:00,
2013-07-31 06:22:00,63.0,43.0,30.08,SW,227,6.0,7.0,48,0.00,,,0.00,,2013-07-31 13:22:00,
2013-07-31 06:33:00,63.0,43.0,30.08,SW,227,6.0,7.0,48,0.00,,,0.00,,2013-07-31 13:33:00,
2013-07-31 06:43:00,64.0,44.0,30.08,WSW,240,5.0,8.0,48,0.00,,,0.00,,2013-07-31 13:43:00,
2013-07-31 06:53:00,63.0,44.0,30.10,WSW,253,5.0,7.0,49,0.00,,,0.00,,2013-07-31 13:53:00,
2013-07-31 07:02:00,63.0,44.0,30.10,WSW,253,5.0,7.0,49,0.00,,,0.00,,2013-07-31 14:02:00,
2013-07-31 07:22:00,63.0,43.0,30.10,WSW,246,5.0,9.0,48,0.00,,,0.00,,2013-07-31 14:22:00,
2013-07-31 07:34:00,64.0,44.0,30.10,SW,230,3.0,8.0,48,0.00,,,0.00,,2013-07-31 14:34:00,
2013-07-31 07:43:00,66.0,45.0,30.09,SW,236,1.0,6.0,46,0.00,,,0.00,,2013-07-31 14:43:00,
2013-07-31 07:53:00,68.0,43.0,30.10,SSW,213,0.0,5.0,41,0.00,,,0.00,,2013-07-31 14:53:00,
2013-07-31 08:01:00,68.0,43.0,30.10,SSW,213,0.0,5.0,41,0.00,,,0.00,,2013-07-31 15:01:00,
2013-07-31 08:12:00,71.0,44.0,30.10,NW,306,0.0,6.0,38,0.00,,,0.00,,2013-07-31 15:12:00,
2013-07-31 08:22:00,74.0,43.0,30.10,North,5,1.0,5.0,33,0.00,,,0.00,,2013-07-31 15:22:00,
2013-07-31 08:33:00,74.0,43.0,30.10,North,5,1.0,5.0,33,0.00,,,0.00,,2013-07-31 15:33:00,
2013-07-31 08:43:00,75.0,42.0,30.12,NNE,15,1.0,4.0,31,0.00,,,0.00,,2013-07-31 15:43:00,
2013-07-31 08:53:00,77.0,39.0,30.10,NW,312,2.0,8.0,26,0.00,,,0.00,,2013-07-31 15:53:00,
2013-07-31 09:01:00,77.0,39.0,30.10,NW,312,2.0,8.0,26,0.00,,,0.00,,2013-07-31 16:01:00,
2013-07-31 09:11:00,77.0,38.0,30.12,SE,136,2.0,7.0,25,0.00,,,0.00,,2013-07-31 16:11:00,
2013-07-31 09:22:00,77.0,41.0,30.12,SE,142,8.0,11.0,28,0.00,,,0.00,,2013-07-31 16:22:00,
2013-07-31 09:33:00,77.0,41.0,30.12,SE,142,8.0,11.0,28,0.00,,,0.00,,2013-07-31 16:33:00,
2013-07-31 09:43:00,78.0,40.0,30.12,SSE,152,6.0,10.0,26,0.00,,,0.00,,2013-07-31 16:43:00,
2013-07-31 09:52:00,79.0,40.0,30.10,SW,229,5.0,9.0,25,0.00,,,0.00,,2013-07-31 16:52:00,
2013-07-31 10:02:00,81.0,41.0,30.12,SSE,150,5.0,11.0,24,0.00,,,0.00,,2013-07-31 17:02:00,
2013-07-31 10:12:00,81.0,41.0,30.12,SSE,150,5.0,11.0,24,0.00,,,0.00,,2013-07-31 17:12:00,
2013-07-31 10:22:00,82.0,39.0,30.11,SSE,148,4.0,14.0,22,0.00,,,0.00,,2013-07-31 17:22:00,
2013-07-31 10:33:00,83.0,39.0,30.11,ESE,123,7.0,11.0,21,0.00,,,0.00,,2013-07-31 17:33:00,
2013-07-31 10:43:00,83.0,39.0,30.11,ESE,123,7.0,11.0,21,0.00,,,0.00,,2013-07-31 17:43:00,
2013-07-31 10:53:00,84.0,37.0,30.12,SSE,152,5.0,13.0,19,0.00,,,0.00,,2013-07-31 17:53:00,
2013-07-31 11:01:00,85.0,38.0,30.11,SE,141,5.0,10.0,19,0.00,,,0.00,,2013-07-31 18:01:00,
2013-07-31 11:12:00,85.0,38.0,30.11,SE,141,5.0,10.0,19,0.00,,,0.00,,2013-07-31 18:12:00,
2013-07-31 11:22:00,83.0,38.0,30.11,SW,231,3.0,13.0,20,0.00,,,0.00,,2013-07-31 18:22:00,
2013-07-31 11:32:00,85.0,37.0,30.11,South,180,5.0,12.0,18,0.00,,,0.00,,2013-07-31 18:32:00,
2013-07-31 11:43:00,85.0,37.0,30.11,South,180,5.0,12.0,18,0.00,,,0.00,,2013-07-31 18:43:00,
2013-07-31 11:52:00,85.0,37.0,30.10,South,173,3.0,16.0,18,0.00,,,0.00,,2013-07-31 18:52:00,
2013-07-31 12:02:00,85.0,35.0,30.09,SSE,166,6.0,18.0,17,0.00,,,0.00,,2013-07-31 19:02:00,
2013-07-31 12:11:00,85.0,35.0,30.09,SSE,166,6.0,18.0,17,0.00,,,0.00,,2013-07-31 19:11:00,
2013-07-31 12:22:00,86.0,40.0,30.10,SE,126,7.0,17.0,20,0.00,,,0.00,,2013-07-31 19:22:00,
2013-07-31 12:32:00,86.0,40.0,30.10,SE,126,7.0,17.0,20,0.00,,,0.00,,2013-07-31 19:32:00,
2013-07-31 12:43:00,86.0,39.0,30.09,South,183,8.0,14.0,19,0.00,,,0.00,,2013-07-31 19:43:00,
2013-07-31 12:53:00,87.0,41.0,30.09,SSE,157,6.0,13.0,20,0.00,,,0.00,,2013-07-31 19:53:00,
2013-07-31 13:01:00,87.0,41.0,30.09,SSE,157,6.0,13.0,20,0.00,,,0.00,,2013-07-31 20:01:00,
2013-07-31 13:11:00,85.0,35.0,30.08,SW,231,11.0,14.0,17,0.00,,,0.00,,2013-07-31 20:11:00,
2013-07-31 13:22:00,86.0,41.0,30.08,SW,232,8.0,15.0,21,0.00,,,0.00,,2013-07-31 20:22:00,
2013-07-31 13:42:00,86.0,41.0,30.07,SSE,152,10.0,16.0,21,0.00,,,0.00,,2013-07-31 20:42:00,
2013-07-31 13:52:00,86.0,43.0,30.07,South,184,10.0,16.0,22,0.00,,,0.00,,2013-07-31 20:52:00,
2013-07-31 14:01:00,87.0,45.0,30.07,South,171,8.0,15.0,23,0.00,,,0.00,,2013-07-31 21:01:00,
2013-07-31 14:11:00,87.0,45.0,30.07,South,171,8.0,15.0,23,0.00,,,0.00,,2013-07-31 21:11:00,
2013-07-31 14:21:00,86.0,44.0,30.06,SW,214,11.0,17.0,23,0.00,,,0.00,,2013-07-31 21:21:00,
2013-07-31 14:42:00,86.0,44.0,30.06,South,186,9.0,17.0,23,0.00,,,0.00,,2013-07-31 21:42:00,
2013-07-31 14:53:00,85.0,45.0,30.06,SSW,201,6.0,17.0,25,0.00,,,0.00,,2013-07-31 21:53:00,
2013-07-31 15:02:00,84.0,43.0,30.06,South,178,10.0,17.0,24,0.00,,,0.00,,2013-07-31 22:02:00,
2013-07-31 15:11:00,84.0,43.0,30.06,South,178,10.0,17.0,24,0.00,,,0.00,,2013-07-31 22:11:00,
2013-07-31 15:22:00,84.0,42.0,30.06,South,169,9.0,19.0,23,0.00,,,0.00,,2013-07-31 22:22:00,
2013-07-31 15:42:00,84.0,41.0,30.06,South,181,10.0,20.0,22,0.00,,,0.00,,2013-07-31 22:42:00,
2013-07-31 15:53:00,84.0,40.0,30.06,SSE,166,10.0,19.0,21,0.00,,,0.00,,2013-07-31 22:53:00,
2013-07-31 16:01:00,84.0,40.0,30.06,South,188,9.0,19.0,21,0.00,,,0.00,,2013-07-31 23:01:00,
2013-07-31 16:11:00,84.0,40.0,30.06,South,188,9.0,19.0,21,0.00,,,0.00,,2013-07-31 23:11:00,
2013-07-31 16:22:00,83.0,41.0,30.06,South,190,6.0,17.0,23,0.00,,,0.00,,2013-07-31 23:22:00,
2013-07-31 16:42:00,83.0,41.0,30.05,South,191,8.0,16.0,23,0.00,,,0.00,,2013-07-31 23:42:00,
2013-07-31 16:52:00,82.0,39.0,30.05,SSE,161,10.0,18.0,22,0.00,,,0.00,,2013-07-31 23:52:00,
2013-07-31 17:01:00,82.0,41.0,30.03,South,174,12.0,18.0,23,0.00,,,0.00,,2013-08-01 00:01:00,
2013-07-31 17:11:00,82.0,41.0,30.03,South,174,12.0,18.0,23,0.00,,,0.00,,2013-08-01 00:11:00,
2013-07-31 17:22:00,82.0,39.0,30.02,SSW,193,6.0,17.0,22,0.00,,,0.00,,2013-08-01 00:22:00,
2013-07-31 17:32:00,82.0,39.0,30.02,SSW,193,6.0,17.0,22,0.00,,,0.00,,2013-08-01 00:32:00,
2013-07-31 17:42:00,81.0,41.0,30.02,South,181,10.0,22.0,24,0.00,,,0.00,,2013-08-01 00:42:00,
2013-07-31 17:52:00,80.0,41.0,30.02,SW,233,9.0,23.0,25,0.00,,,0.00,,2013-08-01 00:52:00,
2013-07-31 18:01:00,79.0,40.0,30.02,South,180,10.0,25.0,25,0.00,,,0.00,,2013-08-01 01:01:00,
2013-07-31 18:12:00,79.0,40.0,30.02,South,180,10.0,25.0,25,0.00,,,0.00,,2013-08-01 01:12:00,
2013-07-31 18:22:00,79.0,40.0,30.01,SSE,167,10.0,22.0,25,0.00,,,0.00,,2013-08-01 01:22:00,
2013-07-31 18:32:00,78.0,43.0,30.01,SW,224,8.0,22.0,29,0.00,,,0.00,,2013-08-01 01:32:00,
2013-07-31 18:42:00,78.0,43.0,30.01,SW,224,8.0,22.0,29,0.00,,,0.00,,2013-08-01 01:42:00,
2013-07-31 18:53:00,77.0,43.0,30.01,South,187,11.0,21.0,30,0.00,,,0.00,,2013-08-01 01:53:00,
2013-07-31 19:01:00,76.0,42.0,30.01,SSW,198,7.0,20.0,30,0.00,,,0.00,,2013-08-01 02:01:00,
2013-07-31 19:12:00,76.0,42.0,30.01,SSW,198,7.0,20.0,30,0.00,,,0.00,,2013-08-01 02:12:00,
2013-07-31 19:22:00,76.0,45.0,30.01,SSE,163,10.0,21.0,33,0.00,,,0.00,,2013-08-01 02:22:00,
2013-07-31 19:32:00,74.0,47.0,30.02,South,182,9.0,16.0,38,0.00,,,0.00,,2013-08-01 02:32:00,
2013-07-31 19:42:00,74.0,47.0,30.02,South,182,9.0,16.0,38,0.00,,,0.00,,2013-08-01 02:42:00,
2013-07-31 19:52:00,73.0,49.0,30.02,SSW,197,8.0,16.0,42,0.00,,,0.00,,2013-08-01 02:52:00,
2013-07-31 20:11:00,72.0,46.0,30.03,West,263,1.0,11.0,39,0.00,,,0.00,,2013-08-01 03:11:00,
2013-07-31 20:22:00,71.0,44.0,30.03,SW,231,4.0,11.0,38,0.00,,,0.00,,2013-08-01 03:22:00,
2013-07-31 20:32:00,71.0,44.0,30.03,SW,231,4.0,11.0,38,0.00,,,0.00,,2013-08-01 03:32:00,
2013-07-31 20:43:00,69.0,47.0,30.05,SE,139,4.0,7.0,45,0.00,,,0.00,,2013-08-01 03:43:00,
2013-07-31 20:53:00,67.0,43.0,30.03,SW,217,7.0,9.0,41,0.00,,,0.00,,2013-08-01 03:53:00,
2013-07-31 21:01:00,68.0,41.0,30.03,SSW,198,1.0,8.0,37,0.00,,,0.00,,2013-08-01 04:01:00,
2013-07-31 21:12:00,68.0,41.0,30.03,SSW,198,1.0,8.0,37,0.00,,,0.00,,2013-08-01 04:12:00,
2013-07-31 21:33:00,66.0,43.0,30.03,SSW,199,0.0,3.0,43,0.00,,,0.00,,2013-08-01 04:33:00,
2013-07-31 21:43:00,65.0,44.0,30.04,SE,135,0.0,5.0,47,0.00,,,0.00,,2013-08-01 04:43:00,
2013-07-31 21:53:00,65.0,44.0,30.06,SE,135,2.0,3.0,46,0.00,,,0.00,,2013-08-01 04:53:00,
2013-07-31 22:02:00,65.0,42.0,30.07,East,86,0.0,5.0,43,0.00,,,0.00,,2013-08-01 05:02:00,
2013-07-31 22:12:00,65.0,42.0,30.07,East,86,0.0,5.0,43,0.00,,,0.00,,2013-08-01 05:12:00,
2013-07-31 22:22:00,65.0,39.0,30.07,East,86,0.0,3.0,38,0.00,,,0.00,,2013-08-01 05:22:00,
2013-07-31 22:32:00,66.0,38.0,30.07,West,265,5.0,8.0,35,0.00,,,0.00,,2013-08-01 05:32:00,
2013-07-31 22:43:00,66.0,38.0,30.07,West,265,5.0,8.0,35,0.00,,,0.00,,2013-08-01 05:43:00,
2013-07-31 22:53:00,66.0,35.0,30.06,West,271,1.0,4.0,32,0.00,,,0.00,,2013-08-01 05:53:00,
2013-07-31 23:01:00,66.0,35.0,30.06,West,271,1.0,3.0,32,0.00,,,0.00,,2013-08-01 06:01:00,
2013-07-31 23:11:00,66.0,35.0,30.06,West,271,1.0,3.0,32,0.00,,,0.00,,2013-08-01 06:11:00,
2013-07-31 23:32:00,68.0,33.0,30.05,WNW,294,4.0,7.0,27,0.00,,,0.00,,2013-08-01 06:32:00,
2013-07-31 23:42:00,68.0,33.0,30.05,WNW,294,4.0,7.0,27,0.00,,,0.00,,2013-08-01 06:42:00,
2013-07-31 23:52:00,68.0,34.0,30.03,WSW,239,4.0,6.0,28,0.00,,,0.00,,2013-08-01 06:52:00,